createdAt,value
2022-10-19T00:03:35.280Z,8.27
2022-10-19T00:06:12.180Z,7.50
2022-10-19T00:08:40.240Z,18.58
2022-10-19T00:11:07.870Z,14.02
2022-10-19T00:13:35.438Z,6.38
2022-10-19T00:16:04.948Z,9.90
2022-10-19T00:18:34.191Z,9.90
2022-10-19T00:21:07.635Z,18.42
2022-10-19T00:23:35.113Z,11.35
2022-10-19T00:26:03.109Z,14.93
2022-10-19T00:28:33.740Z,15.00
2022-10-19T00:31:24.884Z,12.00
2022-10-19T00:33:54.665Z,14.95
2022-10-19T00:36:23.320Z,14.05
2022-10-19T00:38:50.979Z,8.07
2022-10-19T00:41:22.227Z,12.88
2022-10-19T00:43:54.642Z,15.60
2022-10-19T00:47:03.616Z,15.43
2022-10-19T00:50:14.065Z,13.32
2022-10-19T00:52:42.493Z,12.80
2022-10-19T00:55:16.026Z,18.95
2022-10-19T00:57:44.498Z,15.15
2022-10-19T01:00:13.364Z,13.07
2022-10-19T01:02:40.852Z,11.32
2022-10-19T01:05:10.614Z,20.95
2022-10-19T01:16:07.351Z,10.65
2022-10-19T01:23:46.017Z,14.07
2022-10-19T01:30:34.716Z,15.75
2022-10-19T01:37:33.439Z,15.80
2022-10-19T01:44:41.460Z,17.50
2022-10-19T01:51:33.096Z,18.17
2022-10-19T01:54:03.884Z,15.52
2022-10-19T01:56:32.488Z,18.58
2022-10-19T01:59:01.942Z,17.13
2022-10-19T02:01:31.901Z,18.58
2022-10-19T02:04:00.302Z,28.15
2022-10-19T02:06:28.789Z,14.20
2022-10-19T02:08:56.827Z,9.50
2022-10-19T02:11:25.295Z,17.95
2022-10-19T02:14:00.659Z,10.82
2022-10-19T02:16:31.357Z,15.43
2022-10-19T02:18:59.802Z,18.15
2022-10-19T02:21:27.773Z,15.85
2022-10-19T02:23:55.401Z,9.88
2022-10-19T02:26:23.451Z,7.95
2022-10-19T02:28:52.113Z,5.13
2022-10-19T02:31:19.581Z,8.88
2022-10-19T02:33:46.985Z,4.75
2022-10-19T02:36:17.793Z,10.02
2022-10-19T02:38:45.507Z,8.25
2022-10-19T02:41:16.384Z,4.70
2022-10-19T02:43:46.023Z,6.80
2022-10-19T02:46:16.698Z,7.53
2022-10-19T02:48:44.862Z,7.45
2022-10-19T02:51:28.633Z,10.80
2022-10-19T02:53:57.404Z,15.00
2022-10-19T02:56:27.422Z,17.83
2022-10-19T02:58:54.784Z,10.30
2022-10-19T03:01:25.240Z,13.17
2022-10-19T03:03:53.116Z,11.60
2022-10-19T03:06:20.734Z,13.65
2022-10-19T03:08:48.530Z,7.15
2022-10-19T03:11:20.336Z,4.03
2022-10-19T03:16:20.651Z,14.50
2022-10-19T03:18:52.037Z,16.65
2022-10-19T03:21:20.070Z,19.48
2022-10-19T03:23:47.610Z,19.10
2022-10-19T03:26:16.143Z,17.15
2022-10-19T03:28:43.658Z,18.67
2022-10-19T03:31:11.512Z,13.48
2022-10-19T03:33:38.962Z,13.38
2022-10-19T03:36:25.758Z,13.65
2022-10-19T03:38:57.137Z,14.43
2022-10-19T03:50:01.809Z,13.23
2022-10-19T03:57:08.205Z,13.57
2022-10-19T04:11:15.730Z,16.77
2022-10-19T04:13:43.653Z,15.07
2022-10-19T04:16:14.211Z,13.93
2022-10-19T04:18:45.036Z,17.27
2022-10-19T04:21:39.794Z,18.13
2022-10-19T04:24:17.968Z,17.45
2022-10-19T04:31:05.208Z,14.98
2022-10-19T04:37:51.008Z,12.93
2022-10-19T04:44:29.994Z,12.88
2022-10-19T04:51:06.692Z,14.88
2022-10-19T04:57:53.463Z,8.40
2022-10-19T05:04:41.836Z,13.23
2022-10-19T05:27:53.969Z,16.13
2022-10-19T05:35:24.010Z,15.75
2022-10-19T05:37:56.213Z,13.65
2022-10-19T05:48:50.165Z,11.85
2022-10-19T06:00:23.952Z,12.40
2022-10-19T06:02:54.674Z,14.45
2022-10-19T06:05:26.054Z,7.13
2022-10-19T06:07:54.411Z,10.48
2022-10-19T06:10:22.296Z,5.13
2022-10-19T06:12:50.300Z,4.93
2022-10-19T06:15:17.975Z,5.47
2022-10-19T06:17:45.485Z,12.77
2022-10-19T06:20:13.622Z,10.38
2022-10-19T06:22:42.500Z,8.02
2022-10-19T06:25:10.121Z,5.18
2022-10-19T06:27:37.912Z,2.83
2022-10-19T06:30:05.841Z,4.90
2022-10-19T06:32:34.043Z,8.77
2022-10-19T06:35:01.648Z,11.68
2022-10-19T06:37:29.480Z,11.13
2022-10-19T06:39:57.098Z,11.65
2022-10-19T06:42:25.005Z,16.88
2022-10-19T06:44:53.941Z,25.83
2022-10-19T06:47:23.937Z,15.75
2022-10-19T06:49:52.162Z,8.65
2022-10-19T06:52:19.565Z,3.42
2022-10-19T06:54:47.065Z,5.47
2022-10-19T06:57:17.175Z,5.47
2022-10-19T06:59:44.762Z,8.07
2022-10-19T07:02:12.475Z,4.15
2022-10-19T07:04:39.897Z,6.65
2022-10-19T07:07:07.588Z,14.35
2022-10-19T07:09:35.296Z,13.63
2022-10-19T07:12:02.827Z,16.65
2022-10-19T07:14:38.696Z,19.52
2022-10-19T07:17:07.091Z,26.02
2022-10-19T07:19:35.082Z,22.50
2022-10-19T07:22:03.380Z,17.63
2022-10-19T07:24:30.875Z,15.90
2022-10-19T07:26:58.533Z,19.15
2022-10-19T07:29:26.182Z,17.60
2022-10-19T07:31:54.457Z,17.95
2022-10-19T07:34:25.505Z,17.85
2022-10-19T07:36:56.025Z,14.52
2022-10-19T07:39:25.107Z,22.02
2022-10-19T07:41:53.236Z,24.75
2022-10-19T07:44:20.789Z,24.08
2022-10-19T07:46:48.193Z,22.92
2022-10-19T07:49:18.968Z,22.30
2022-10-19T07:51:47.275Z,21.23
2022-10-19T07:54:14.671Z,24.58
2022-10-19T07:56:42.129Z,17.85
2022-10-19T07:59:10.888Z,18.35
2022-10-19T08:01:45.059Z,19.75
2022-10-19T08:07:00.316Z,18.88
2022-10-19T08:09:51.663Z,15.55
2022-10-19T08:12:19.014Z,13.50
2022-10-19T08:14:48.135Z,16.52
2022-10-19T08:17:17.938Z,16.27
2022-10-19T08:19:46.301Z,13.23
2022-10-19T08:22:14.028Z,13.68
2022-10-19T08:24:41.589Z,17.17
2022-10-19T08:27:09.181Z,15.82
2022-10-19T08:29:36.753Z,14.38
2022-10-19T08:32:04.175Z,12.23
2022-10-19T08:34:33.323Z,17.25
2022-10-19T08:37:06.835Z,14.63
2022-10-19T08:39:44.969Z,13.77
2022-10-19T08:42:19.456Z,17.77
2022-10-19T08:45:03.827Z,12.48
2022-10-19T08:47:34.477Z,18.05
2022-10-19T08:50:15.388Z,9.23
2022-10-19T08:52:42.910Z,19.58
2022-10-19T08:55:20.705Z,13.68
2022-10-19T08:58:00.050Z,12.10
2022-10-19T09:00:34.116Z,11.38
2022-10-19T09:03:04.909Z,14.75
2022-10-19T09:05:45.945Z,12.10
2022-10-19T09:08:17.599Z,10.55
2022-10-19T09:10:48.600Z,11.82
2022-10-19T09:13:22.224Z,8.82
2022-10-19T09:15:53.730Z,11.43
2022-10-19T09:18:28.108Z,15.75
2022-10-19T09:21:02.429Z,12.88
2022-10-19T09:23:36.228Z,12.68
2022-10-19T09:26:04.622Z,15.07
2022-10-19T09:29:10.446Z,11.40
2022-10-19T09:31:40.676Z,8.40
2022-10-19T09:36:49.996Z,14.25
2022-10-19T09:39:18.556Z,15.55
2022-10-19T09:41:55.827Z,9.00
2022-10-19T09:44:24.905Z,14.65
2022-10-19T09:46:55.844Z,11.60
2022-10-19T09:49:43.713Z,7.90
2022-10-19T09:52:41.772Z,6.90
2022-10-19T09:55:15.037Z,6.32
2022-10-19T09:57:49.725Z,3.45
2022-10-19T10:00:23.784Z,6.15
2022-10-19T10:02:55.449Z,10.50
2022-10-19T10:05:34.199Z,9.05
2022-10-19T10:08:02.083Z,10.35
2022-10-19T10:10:56.272Z,6.88
2022-10-19T10:13:25.331Z,10.38
2022-10-19T10:15:56.638Z,10.32
2022-10-19T10:18:28.650Z,9.73
2022-10-19T10:21:02.584Z,8.32
2022-10-19T10:23:35.985Z,11.50
2022-10-19T10:26:04.057Z,6.82
2022-10-19T10:28:32.015Z,4.93
2022-10-19T10:31:04.515Z,8.63
2022-10-19T10:33:44.153Z,5.75
2022-10-19T10:36:13.711Z,9.15
2022-10-19T10:38:43.522Z,10.20
2022-10-19T10:41:15.973Z,5.10
2022-10-19T10:43:53.401Z,4.60
2022-10-19T10:46:24.081Z,4.90
2022-10-19T10:48:57.661Z,8.88
2022-10-19T10:51:55.055Z,8.63
2022-10-19T10:54:27.222Z,6.80
2022-10-19T10:57:12.324Z,4.38
2022-10-19T10:59:49.130Z,6.60
2022-10-19T11:02:52.237Z,3.88
2022-10-19T11:05:27.706Z,4.40
2022-10-19T11:08:05.425Z,6.35
2022-10-19T11:10:36.134Z,2.28
2022-10-19T11:13:11.767Z,4.78
2022-10-19T11:15:45.855Z,5.57
2022-10-19T11:18:35.567Z,9.60
2022-10-19T11:21:07.149Z,7.17
2022-10-19T11:23:41.395Z,6.45
2022-10-19T11:26:09.305Z,7.35
2022-10-19T11:28:55.040Z,9.68
2022-10-19T11:31:25.057Z,7.57
2022-10-19T11:33:53.164Z,5.95
2022-10-19T11:36:33.165Z,6.10
2022-10-19T11:39:02.398Z,8.90
2022-10-19T11:41:42.044Z,5.68
2022-10-19T11:44:12.305Z,12.40
2022-10-19T11:46:39.754Z,6.20
2022-10-19T11:49:25.895Z,8.00
2022-10-19T11:52:14.808Z,7.45
2022-10-19T11:55:32.956Z,8.23
2022-10-19T11:58:09.523Z,9.27
2022-10-19T12:00:56.356Z,5.95
2022-10-19T12:03:33.630Z,6.72
2022-10-19T12:06:20.371Z,11.05
2022-10-19T12:09:07.000Z,5.93
2022-10-19T12:12:07.176Z,5.43
2022-10-19T12:14:39.887Z,7.20
2022-10-19T12:17:10.453Z,9.90
2022-10-19T12:19:59.243Z,5.90
2022-10-19T12:22:28.803Z,7.75
2022-10-19T12:24:58.472Z,4.70
2022-10-19T12:27:37.179Z,7.20
2022-10-19T12:30:09.367Z,9.05
2022-10-19T12:32:41.088Z,8.57
2022-10-19T12:35:13.340Z,8.30
2022-10-19T12:37:44.667Z,11.38
2022-10-19T12:40:24.921Z,6.97
2022-10-19T12:43:10.916Z,7.00
2022-10-19T12:45:45.949Z,8.88
2022-10-19T12:48:20.156Z,8.40
2022-10-19T12:50:53.915Z,6.57
2022-10-19T12:56:08.127Z,6.90
2022-10-19T12:58:35.662Z,7.20
2022-10-19T13:01:04.090Z,6.13
2022-10-19T13:03:34.156Z,4.70
2022-10-19T13:06:03.446Z,5.55
2022-10-19T13:08:33.522Z,7.32
2022-10-19T13:13:48.015Z,5.93
2022-10-19T13:16:34.633Z,7.25
2022-10-19T13:19:03.379Z,7.00
2022-10-19T13:21:46.774Z,5.07
2022-10-19T13:24:27.346Z,2.72
2022-10-19T13:29:29.222Z,4.22
2022-10-19T13:31:56.737Z,9.10
2022-10-19T13:34:32.262Z,10.30
2022-10-19T13:37:01.073Z,5.13
2022-10-19T13:39:29.287Z,5.32
2022-10-19T13:41:57.474Z,11.05
2022-10-19T13:44:27.791Z,6.40
2022-10-19T13:46:55.495Z,6.85
2022-10-19T13:49:41.985Z,9.50
2022-10-19T13:52:25.417Z,5.45
2022-10-19T13:55:11.451Z,7.57
2022-10-19T13:57:51.425Z,5.75
2022-10-19T14:00:26.747Z,9.73
2022-10-19T14:02:54.642Z,5.85
2022-10-19T14:05:41.666Z,4.95
2022-10-19T14:08:15.607Z,8.00
2022-10-19T14:11:00.129Z,4.25
2022-10-19T14:13:28.775Z,6.75
2022-10-19T14:15:57.229Z,6.80
2022-10-19T14:18:32.266Z,6.45
2022-10-19T14:21:07.591Z,9.73
2022-10-19T14:23:36.395Z,4.22
2022-10-19T14:26:06.613Z,7.72
2022-10-19T14:28:34.503Z,7.32
2022-10-19T14:31:06.363Z,5.35
2022-10-19T14:33:35.296Z,6.13
2022-10-19T14:36:03.349Z,4.97
2022-10-19T14:38:35.855Z,2.72
2022-10-19T14:41:04.576Z,9.55
2022-10-19T14:43:32.719Z,7.82
2022-10-19T14:46:09.408Z,4.57
2022-10-19T14:48:38.201Z,6.55
2022-10-19T14:51:10.062Z,10.30
2022-10-19T14:53:37.790Z,7.55
2022-10-19T14:56:09.629Z,9.50
2022-10-19T14:58:40.983Z,7.82
2022-10-19T15:01:09.192Z,4.35
2022-10-19T15:03:40.244Z,6.45
2022-10-19T15:06:17.238Z,4.93
2022-10-19T15:08:48.792Z,9.63
2022-10-19T15:11:29.018Z,8.15
2022-10-19T15:13:58.815Z,9.80
2022-10-19T15:16:32.140Z,11.32
2022-10-19T15:19:04.615Z,5.80
2022-10-19T15:21:33.509Z,13.00
2022-10-19T15:24:09.408Z,8.10
2022-10-19T15:26:38.116Z,13.40
2022-10-19T15:29:11.063Z,13.05
2022-10-19T15:31:50.088Z,13.73
2022-10-19T15:34:40.608Z,14.23
2022-10-19T15:37:16.910Z,14.85
2022-10-19T15:39:47.825Z,10.85
2022-10-19T15:42:30.553Z,13.55
2022-10-19T15:44:58.933Z,18.52
2022-10-19T15:47:27.761Z,12.07
2022-10-19T15:49:56.885Z,16.00
2022-10-19T15:52:26.690Z,19.05
2022-10-19T15:54:58.947Z,13.43
2022-10-19T15:57:37.393Z,14.65
2022-10-19T16:00:15.970Z,14.50
2022-10-19T16:02:43.670Z,17.20
2022-10-19T16:05:11.850Z,15.43
2022-10-19T16:07:41.015Z,10.23
2022-10-19T16:10:09.834Z,12.93
2022-10-19T16:12:37.329Z,16.02
2022-10-19T16:15:05.548Z,13.75
2022-10-19T16:17:33.965Z,17.70
2022-10-19T16:20:02.045Z,17.00
2022-10-19T16:22:29.888Z,9.60
2022-10-19T16:24:57.399Z,13.23
2022-10-19T16:27:25.260Z,15.02
2022-10-19T16:29:55.124Z,12.15
2022-10-19T16:32:23.534Z,13.00
2022-10-19T16:34:54.356Z,12.65
2022-10-19T16:37:22.268Z,11.80
2022-10-19T16:39:50.481Z,7.30
2022-10-19T16:42:18.044Z,13.73
2022-10-19T16:44:45.604Z,11.70
2022-10-19T16:47:13.946Z,10.20
2022-10-19T16:49:41.297Z,11.00
2022-10-19T16:52:09.381Z,13.88
2022-10-19T16:54:36.846Z,11.43
2022-10-19T16:57:09.429Z,10.25
2022-10-19T16:59:37.521Z,11.93
2022-10-19T17:02:05.079Z,17.80
2022-10-19T17:04:32.510Z,11.32
2022-10-19T17:07:00.083Z,8.98
2022-10-19T17:09:43.739Z,11.50
2022-10-19T17:12:11.882Z,10.52
2022-10-19T17:14:40.432Z,10.93
2022-10-19T17:17:08.329Z,10.65
2022-10-19T17:19:36.705Z,13.13
2022-10-19T17:22:05.736Z,14.05
2022-10-19T17:24:33.598Z,13.00
2022-10-19T17:27:03.346Z,11.52
2022-10-19T17:29:31.367Z,14.52
2022-10-19T17:31:58.906Z,11.63
2022-10-19T17:34:27.790Z,12.75
2022-10-19T17:36:55.432Z,15.27
2022-10-19T17:39:28.934Z,10.70
2022-10-19T17:42:02.319Z,7.10
2022-10-19T17:44:33.380Z,12.90
2022-10-19T17:47:01.225Z,12.25
2022-10-19T17:49:30.262Z,11.57
2022-10-19T17:51:58.251Z,7.90
2022-10-19T17:54:25.788Z,13.55
2022-10-19T17:56:54.636Z,8.95
2022-10-19T17:59:34.712Z,11.90
2022-10-19T18:02:09.367Z,10.65
2022-10-19T18:04:37.210Z,8.55
2022-10-19T18:07:04.768Z,11.45
2022-10-19T18:09:32.202Z,12.13
2022-10-19T18:12:04.682Z,11.57
2022-10-19T18:14:34.889Z,8.52
2022-10-19T18:17:02.276Z,12.25
2022-10-19T18:19:30.259Z,12.27
2022-10-19T18:21:57.923Z,10.73
2022-10-19T18:24:26.476Z,12.60
2022-10-19T18:26:54.016Z,11.30
2022-10-19T18:29:23.385Z,14.90
2022-10-19T18:31:53.521Z,10.88
2022-10-19T18:34:23.701Z,12.15
2022-10-19T18:36:52.181Z,13.32
2022-10-19T18:39:19.975Z,15.73
2022-10-19T18:41:52.021Z,11.27
2022-10-19T18:44:27.359Z,10.45
2022-10-19T18:46:58.139Z,14.90
2022-10-19T18:49:25.815Z,10.75
2022-10-19T18:51:55.880Z,7.00
2022-10-19T18:54:26.391Z,11.93
2022-10-19T18:56:54.645Z,8.68
2022-10-19T18:59:23.246Z,15.65
2022-10-19T19:01:51.130Z,13.90
2022-10-19T19:04:19.395Z,13.35
2022-10-19T19:06:47.154Z,12.30
2022-10-19T19:09:15.244Z,8.70
2022-10-19T19:11:43.145Z,11.60
2022-10-19T19:14:21.816Z,8.48
2022-10-19T19:16:49.541Z,11.32
2022-10-19T19:19:18.103Z,15.25
2022-10-19T19:21:46.321Z,8.50
2022-10-19T19:24:15.255Z,12.95
2022-10-19T19:26:46.343Z,11.05
2022-10-19T19:29:14.300Z,10.30
2022-10-19T19:31:45.312Z,9.35
2022-10-19T19:34:12.930Z,12.80
2022-10-19T19:36:48.797Z,9.05
2022-10-19T19:39:18.866Z,7.90
2022-10-19T19:41:46.578Z,8.95
2022-10-19T19:44:14.376Z,12.77
2022-10-19T19:46:48.746Z,10.18
2022-10-19T19:49:16.601Z,8.63
2022-10-19T19:51:44.843Z,11.60
2022-10-19T19:54:12.567Z,9.82
2022-10-19T19:56:42.218Z,9.63
2022-10-19T19:59:10.681Z,7.70
2022-10-19T20:01:39.450Z,14.48
2022-10-19T20:04:07.351Z,9.88
2022-10-19T20:06:38.849Z,9.00
2022-10-19T20:09:06.977Z,11.07
2022-10-19T20:11:38.380Z,14.00
2022-10-19T20:14:08.830Z,11.32
2022-10-19T20:16:37.012Z,7.00
2022-10-19T20:19:06.093Z,9.48
2022-10-19T20:21:33.796Z,8.70
2022-10-19T20:24:01.517Z,10.65
2022-10-19T20:26:29.100Z,12.10
2022-10-19T20:28:57.283Z,8.75
2022-10-19T20:34:01.263Z,19.77
2022-10-19T20:36:28.629Z,13.75
2022-10-19T20:38:57.435Z,10.35
2022-10-19T20:41:26.007Z,15.60
2022-10-19T20:43:56.892Z,10.25
2022-10-19T20:46:26.685Z,10.20
2022-10-19T20:48:54.826Z,11.05
2022-10-19T20:51:28.996Z,8.50
2022-10-19T20:54:00.411Z,10.07
2022-10-19T20:56:29.644Z,11.10
2022-10-19T21:01:37.679Z,13.45
2022-10-19T21:04:06.040Z,11.25
2022-10-19T21:06:35.716Z,7.05
2022-10-19T21:09:03.234Z,10.63
2022-10-19T21:11:32.180Z,15.63
2022-10-19T21:14:03.043Z,15.52
2022-10-19T21:16:35.266Z,13.45
2022-10-19T21:19:04.454Z,12.63
2022-10-19T21:21:33.297Z,10.60
2022-10-19T21:24:04.014Z,9.85
2022-10-19T21:26:32.837Z,10.88
2022-10-19T21:29:02.552Z,8.32
2022-10-19T21:31:30.877Z,10.50
2022-10-19T21:33:58.590Z,9.65
2022-10-19T21:36:26.120Z,10.07
2022-10-19T21:38:54.324Z,8.27
2022-10-19T21:41:26.503Z,9.63
2022-10-19T21:43:55.060Z,17.10
2022-10-19T21:46:23.682Z,6.22
2022-10-19T21:48:52.651Z,12.60
2022-10-19T21:51:38.897Z,9.10
2022-10-19T21:54:16.783Z,10.05
2022-10-19T21:56:52.353Z,14.32
2022-10-19T21:59:19.948Z,11.55
2022-10-19T22:01:47.858Z,13.35
2022-10-19T22:04:16.887Z,14.55
2022-10-19T22:06:44.737Z,15.40
2022-10-19T22:09:16.863Z,11.82
2022-10-19T22:11:44.511Z,14.10
2022-10-19T22:14:12.897Z,11.65
2022-10-19T22:16:41.105Z,14.05
2022-10-19T22:19:10.083Z,9.98
2022-10-19T22:24:12.142Z,15.95
2022-10-19T22:26:44.584Z,12.20
2022-10-19T22:29:12.517Z,13.50
2022-10-19T22:31:40.202Z,22.30
2022-10-19T22:34:09.463Z,30.35
2022-10-19T22:36:38.118Z,18.80
2022-10-19T22:39:07.082Z,16.13
2022-10-19T22:42:12.245Z,25.15
2022-10-19T22:44:59.125Z,11.18
2022-10-19T22:47:26.735Z,14.85
2022-10-19T22:49:54.341Z,13.00
2022-10-19T22:52:23.710Z,8.98
2022-10-19T22:54:52.521Z,12.60
2022-10-19T22:57:20.274Z,13.55
2022-10-19T22:59:47.986Z,8.75
2022-10-19T23:06:35.004Z,13.45
2022-10-19T23:09:03.421Z,14.27
2022-10-19T23:11:32.120Z,18.17
2022-10-19T23:13:59.851Z,13.93
2022-10-19T23:18:55.897Z,12.02
2022-10-19T23:21:23.455Z,12.75
